sensor_id;sensor_type;location;lat;lon;timestamp;P1;durP1;ratioP1;P2;durP2;ratioP2
1765;SDS011;880;52.452;8.656;2022-11-15T00:00:46;13.90;;;12.40;;
1765;SDS011;880;52.452;8.656;2022-11-15T00:03:32;15.13;;;13.10;;
1765;SDS011;880;52.452;8.656;2022-11-15T00:06:18;14.10;;;12.60;;
1765;SDS011;880;52.452;8.656;2022-11-15T00:09:03;14.20;;;12.70;;
1765;SDS011;880;52.452;8.656;2022-11-15T00:11:49;15.47;;;13.87;;
1765;SDS011;880;52.452;8.656;2022-11-15T00:14:36;13.50;;;12.20;;
1765;SDS011;880;52.452;8.656;2022-11-15T00:17:22;14.50;;;12.97;;
1765;SDS011;880;52.452;8.656;2022-11-15T00:20:07;15.73;;;13.30;;
1765;SDS011;880;52.452;8.656;2022-11-15T00:22:53;14.57;;;13.17;;
1765;SDS011;880;52.452;8.656;2022-11-15T00:25:39;14.50;;;12.53;;
1765;SDS011;880;52.452;8.656;2022-11-15T00:28:25;13.63;;;12.33;;
1765;SDS011;880;52.452;8.656;2022-11-15T00:31:12;15.33;;;13.30;;
1765;SDS011;880;52.452;8.656;2022-11-15T00:33:58;14.10;;;12.70;;
1765;SDS011;880;52.452;8.656;2022-11-15T00:36:44;13.70;;;12.30;;
1765;SDS011;880;52.452;8.656;2022-11-15T00:39:29;13.83;;;12.47;;
1765;SDS011;880;52.452;8.656;2022-11-15T00:42:15;14.27;;;12.97;;
1765;SDS011;880;52.452;8.656;2022-11-15T00:45:01;13.10;;;11.70;;
1765;SDS011;880;52.452;8.656;2022-11-15T00:47:47;13.43;;;12.17;;
1765;SDS011;880;52.452;8.656;2022-11-15T00:50:33;12.37;;;11.20;;
1765;SDS011;880;52.452;8.656;2022-11-15T00:53:18;14.10;;;12.60;;
1765;SDS011;880;52.452;8.656;2022-11-15T00:56:04;13.00;;;11.80;;
1765;SDS011;880;52.452;8.656;2022-11-15T00:58:51;12.20;;;11.00;;
1765;SDS011;880;52.452;8.656;2022-11-15T01:01:37;12.00;;;10.80;;
1765;SDS011;880;52.452;8.656;2022-11-15T01:04:23;12.30;;;11.20;;
1765;SDS011;880;52.452;8.656;2022-11-15T01:07:08;13.53;;;12.23;;
1765;SDS011;880;52.452;8.656;2022-11-15T01:09:54;12.70;;;11.37;;
1765;SDS011;880;52.452;8.656;2022-11-15T01:12:40;11.97;;;10.83;;
1765;SDS011;880;52.452;8.656;2022-11-15T01:15:25;11.83;;;10.73;;
1765;SDS011;880;52.452;8.656;2022-11-15T01:18:11;12.97;;;11.60;;
1765;SDS011;880;52.452;8.656;2022-11-15T01:20:56;14.03;;;11.50;;
1765;SDS011;880;52.452;8.656;2022-11-15T01:23:42;12.30;;;11.10;;
1765;SDS011;880;52.452;8.656;2022-11-15T01:26:28;13.40;;;11.80;;
1765;SDS011;880;52.452;8.656;2022-11-15T01:29:14;13.37;;;11.90;;
1765;SDS011;880;52.452;8.656;2022-11-15T01:31:59;13.60;;;10.90;;
1765;SDS011;880;52.452;8.656;2022-11-15T01:34:45;14.17;;;11.13;;
1765;SDS011;880;52.452;8.656;2022-11-15T01:37:30;14.50;;;11.27;;
1765;SDS011;880;52.452;8.656;2022-11-15T01:40:16;10.80;;;9.80;;
1765;SDS011;880;52.452;8.656;2022-11-15T01:49:19;11.83;;;10.60;;
1765;SDS011;880;52.452;8.656;2022-11-15T01:52:10;13.93;;;10.70;;
1765;SDS011;880;52.452;8.656;2022-11-15T01:55:11;12.53;;;10.57;;
1765;SDS011;880;52.452;8.656;2022-11-15T01:58:04;13.27;;;10.97;;
1765;SDS011;880;52.452;8.656;2022-11-15T02:00:51;13.43;;;11.03;;
1765;SDS011;880;52.452;8.656;2022-11-15T02:03:56;12.53;;;11.00;;
1765;SDS011;880;52.452;8.656;2022-11-15T02:06:45;12.60;;;11.30;;
1765;SDS011;880;52.452;8.656;2022-11-15T02:09:32;11.10;;;10.10;;
1765;SDS011;880;52.452;8.656;2022-11-15T02:12:20;12.90;;;11.60;;
1765;SDS011;880;52.452;8.656;2022-11-15T02:15:07;11.73;;;10.53;;
1765;SDS011;880;52.452;8.656;2022-11-15T02:21:14;11.27;;;10.07;;
1765;SDS011;880;52.452;8.656;2022-11-15T02:31:00;11.40;;;10.30;;
1765;SDS011;880;52.452;8.656;2022-11-15T02:43:43;11.70;;;10.40;;
1765;SDS011;880;52.452;8.656;2022-11-15T02:50:07;14.63;;;11.30;;
1765;SDS011;880;52.452;8.656;2022-11-15T02:52:56;12.97;;;11.60;;
1765;SDS011;880;52.452;8.656;2022-11-15T02:55:43;14.13;;;10.37;;
1765;SDS011;880;52.452;8.656;2022-11-15T03:01:59;17.53;;;10.00;;
1765;SDS011;880;52.452;8.656;2022-11-15T03:05:25;12.50;;;9.90;;
1765;SDS011;880;52.452;8.656;2022-11-15T03:11:41;11.27;;;10.07;;
1765;SDS011;880;52.452;8.656;2022-11-15T03:14:34;11.53;;;10.20;;
1765;SDS011;880;52.452;8.656;2022-11-15T03:17:43;10.50;;;9.40;;
1765;SDS011;880;52.452;8.656;2022-11-15T03:20:43;10.70;;;9.60;;
1765;SDS011;880;52.452;8.656;2022-11-15T03:23:31;13.27;;;11.10;;
1765;SDS011;880;52.452;8.656;2022-11-15T03:26:19;10.37;;;9.10;;
1765;SDS011;880;52.452;8.656;2022-11-15T03:29:09;12.80;;;9.23;;
1765;SDS011;880;52.452;8.656;2022-11-15T03:32:03;10.90;;;9.87;;
1765;SDS011;880;52.452;8.656;2022-11-15T03:41:22;10.43;;;9.50;;
1765;SDS011;880;52.452;8.656;2022-11-15T03:47:32;11.00;;;9.80;;
1765;SDS011;880;52.452;8.656;2022-11-15T03:50:22;12.20;;;10.50;;
1765;SDS011;880;52.452;8.656;2022-11-15T03:53:09;10.53;;;9.53;;
1765;SDS011;880;52.452;8.656;2022-11-15T03:55:55;12.07;;;10.93;;
1765;SDS011;880;52.452;8.656;2022-11-15T03:58:41;12.17;;;10.87;;
1765;SDS011;880;52.452;8.656;2022-11-15T04:01:27;11.73;;;10.60;;
1765;SDS011;880;52.452;8.656;2022-11-15T04:04:13;10.87;;;9.87;;
1765;SDS011;880;52.452;8.656;2022-11-15T04:06:58;12.90;;;11.60;;
1765;SDS011;880;52.452;8.656;2022-11-15T04:09:44;11.57;;;10.43;;
1765;SDS011;880;52.452;8.656;2022-11-15T04:12:47;12.30;;;10.83;;
1765;SDS011;880;52.452;8.656;2022-11-15T04:15:33;14.57;;;11.60;;
1765;SDS011;880;52.452;8.656;2022-11-15T04:18:19;12.93;;;11.33;;
1765;SDS011;880;52.452;8.656;2022-11-15T04:21:05;13.53;;;10.20;;
1765;SDS011;880;52.452;8.656;2022-11-15T04:24:09;11.63;;;10.40;;
1765;SDS011;880;52.452;8.656;2022-11-15T04:26:58;13.00;;;10.83;;
1765;SDS011;880;52.452;8.656;2022-11-15T04:29:45;13.17;;;11.90;;
1765;SDS011;880;52.452;8.656;2022-11-15T04:32:30;11.27;;;10.13;;
1765;SDS011;880;52.452;8.656;2022-11-15T04:35:15;11.43;;;10.23;;
1765;SDS011;880;52.452;8.656;2022-11-15T04:38:04;12.40;;;10.30;;
1765;SDS011;880;52.452;8.656;2022-11-15T04:40:51;12.50;;;11.40;;
1765;SDS011;880;52.452;8.656;2022-11-15T04:43:37;13.53;;;11.60;;
1765;SDS011;880;52.452;8.656;2022-11-15T04:46:22;16.10;;;12.30;;
1765;SDS011;880;52.452;8.656;2022-11-15T04:49:08;13.07;;;10.90;;
1765;SDS011;880;52.452;8.656;2022-11-15T04:51:55;12.90;;;11.03;;
1765;SDS011;880;52.452;8.656;2022-11-15T04:54:40;13.50;;;11.43;;
1765;SDS011;880;52.452;8.656;2022-11-15T04:57:27;13.33;;;12.03;;
1765;SDS011;880;52.452;8.656;2022-11-15T05:00:13;13.43;;;12.07;;
1765;SDS011;880;52.452;8.656;2022-11-15T05:03:02;13.57;;;11.30;;
1765;SDS011;880;52.452;8.656;2022-11-15T05:06:06;13.43;;;11.73;;
1765;SDS011;880;52.452;8.656;2022-11-15T05:08:52;15.13;;;11.80;;
1765;SDS011;880;52.452;8.656;2022-11-15T05:11:38;13.90;;;12.50;;
1765;SDS011;880;52.452;8.656;2022-11-15T05:14:24;13.30;;;11.90;;
1765;SDS011;880;52.452;8.656;2022-11-15T05:17:10;15.67;;;12.03;;
1765;SDS011;880;52.452;8.656;2022-11-15T05:19:56;24.27;;;13.40;;
1765;SDS011;880;52.452;8.656;2022-11-15T05:22:41;13.73;;;12.37;;
1765;SDS011;880;52.452;8.656;2022-11-15T05:25:27;13.80;;;12.40;;
1765;SDS011;880;52.452;8.656;2022-11-15T05:28:12;17.23;;;13.03;;
1765;SDS011;880;52.452;8.656;2022-11-15T05:31:05;15.93;;;13.33;;
1765;SDS011;880;52.452;8.656;2022-11-15T05:33:54;15.97;;;13.00;;
1765;SDS011;880;52.452;8.656;2022-11-15T05:36:41;15.20;;;13.50;;
1765;SDS011;880;52.452;8.656;2022-11-15T05:39:30;14.67;;;13.07;;
1765;SDS011;880;52.452;8.656;2022-11-15T05:42:15;14.47;;;13.03;;
1765;SDS011;880;52.452;8.656;2022-11-15T05:45:02;14.80;;;13.40;;
1765;SDS011;880;52.452;8.656;2022-11-15T05:47:51;15.83;;;14.23;;
1765;SDS011;880;52.452;8.656;2022-11-15T05:50:39;15.90;;;14.17;;
1765;SDS011;880;52.452;8.656;2022-11-15T05:53:29;15.33;;;13.93;;
1765;SDS011;880;52.452;8.656;2022-11-15T05:56:15;15.47;;;13.70;;
1765;SDS011;880;52.452;8.656;2022-11-15T05:59:01;15.07;;;13.47;;
1765;SDS011;880;52.452;8.656;2022-11-15T06:01:48;14.80;;;13.40;;
1765;SDS011;880;52.452;8.656;2022-11-15T06:04:34;17.67;;;13.97;;
1765;SDS011;880;52.452;8.656;2022-11-15T06:07:20;15.07;;;13.67;;
1765;SDS011;880;52.452;8.656;2022-11-15T06:10:06;15.80;;;14.17;;
1765;SDS011;880;52.452;8.656;2022-11-15T06:12:59;15.40;;;13.80;;
1765;SDS011;880;52.452;8.656;2022-11-15T06:15:46;16.10;;;13.57;;
1765;SDS011;880;52.452;8.656;2022-11-15T06:18:33;16.57;;;15.00;;
1765;SDS011;880;52.452;8.656;2022-11-15T06:21:19;14.73;;;13.23;;
1765;SDS011;880;52.452;8.656;2022-11-15T06:24:05;14.87;;;13.33;;
1765;SDS011;880;52.452;8.656;2022-11-15T06:26:51;14.30;;;12.90;;
1765;SDS011;880;52.452;8.656;2022-11-15T06:29:37;14.13;;;12.77;;
1765;SDS011;880;52.452;8.656;2022-11-15T06:32:22;13.17;;;11.80;;
1765;SDS011;880;52.452;8.656;2022-11-15T06:35:08;14.10;;;12.70;;
1765;SDS011;880;52.452;8.656;2022-11-15T06:37:53;13.43;;;12.23;;
1765;SDS011;880;52.452;8.656;2022-11-15T06:40:39;13.53;;;12.00;;
1765;SDS011;880;52.452;8.656;2022-11-15T06:43:25;13.33;;;11.80;;
1765;SDS011;880;52.452;8.656;2022-11-15T06:46:10;14.13;;;12.80;;
1765;SDS011;880;52.452;8.656;2022-11-15T06:48:56;13.73;;;12.40;;
1765;SDS011;880;52.452;8.656;2022-11-15T06:51:42;13.10;;;11.70;;
1765;SDS011;880;52.452;8.656;2022-11-15T06:54:27;13.43;;;11.93;;
1765;SDS011;880;52.452;8.656;2022-11-15T06:57:13;14.80;;;12.23;;
1765;SDS011;880;52.452;8.656;2022-11-15T06:59:58;14.17;;;12.67;;
1765;SDS011;880;52.452;8.656;2022-11-15T07:02:44;13.63;;;12.20;;
1765;SDS011;880;52.452;8.656;2022-11-15T07:05:30;14.73;;;13.40;;
1765;SDS011;880;52.452;8.656;2022-11-15T07:08:16;13.60;;;12.20;;
1765;SDS011;880;52.452;8.656;2022-11-15T07:11:03;14.03;;;12.70;;
1765;SDS011;880;52.452;8.656;2022-11-15T07:13:51;18.23;;;13.00;;
1765;SDS011;880;52.452;8.656;2022-11-15T07:16:37;12.53;;;11.33;;
1765;SDS011;880;52.452;8.656;2022-11-15T07:19:22;13.30;;;12.00;;
1765;SDS011;880;52.452;8.656;2022-11-15T07:22:07;13.00;;;11.57;;
1765;SDS011;880;52.452;8.656;2022-11-15T07:24:53;17.30;;;11.90;;
1765;SDS011;880;52.452;8.656;2022-11-15T07:27:39;13.80;;;12.20;;
1765;SDS011;880;52.452;8.656;2022-11-15T07:30:25;12.00;;;10.83;;
1765;SDS011;880;52.452;8.656;2022-11-15T07:33:12;13.70;;;12.37;;
1765;SDS011;880;52.452;8.656;2022-11-15T07:36:01;13.33;;;11.67;;
1765;SDS011;880;52.452;8.656;2022-11-15T07:38:51;12.27;;;11.07;;
1765;SDS011;880;52.452;8.656;2022-11-15T07:41:36;12.50;;;11.20;;
1765;SDS011;880;52.452;8.656;2022-11-15T07:44:23;14.97;;;12.10;;
1765;SDS011;880;52.452;8.656;2022-11-15T07:47:08;12.83;;;11.50;;
1765;SDS011;880;52.452;8.656;2022-11-15T07:49:54;12.60;;;11.40;;
1765;SDS011;880;52.452;8.656;2022-11-15T07:52:39;11.50;;;10.43;;
1765;SDS011;880;52.452;8.656;2022-11-15T07:55:26;14.00;;;10.63;;
1765;SDS011;880;52.452;8.656;2022-11-15T07:58:14;11.23;;;9.97;;
1765;SDS011;880;52.452;8.656;2022-11-15T08:01:06;10.80;;;9.70;;
1765;SDS011;880;52.452;8.656;2022-11-15T08:03:54;11.70;;;10.60;;
1765;SDS011;880;52.452;8.656;2022-11-15T08:06:40;11.40;;;10.30;;
1765;SDS011;880;52.452;8.656;2022-11-15T08:09:25;12.13;;;10.77;;
1765;SDS011;880;52.452;8.656;2022-11-15T08:12:11;11.02;;;10.02;;
1765;SDS011;880;52.452;8.656;2022-11-15T08:14:57;11.23;;;10.03;;
1765;SDS011;880;52.452;8.656;2022-11-15T08:17:42;11.13;;;9.93;;
1765;SDS011;880;52.452;8.656;2022-11-15T08:20:29;11.50;;;10.50;;
1765;SDS011;880;52.452;8.656;2022-11-15T08:23:15;11.20;;;10.20;;
1765;SDS011;880;52.452;8.656;2022-11-15T08:26:01;10.70;;;9.80;;
1765;SDS011;880;52.452;8.656;2022-11-15T08:28:48;10.03;;;9.10;;
1765;SDS011;880;52.452;8.656;2022-11-15T08:31:34;9.83;;;8.93;;
1765;SDS011;880;52.452;8.656;2022-11-15T08:34:21;8.50;;;7.80;;
1765;SDS011;880;52.452;8.656;2022-11-15T08:37:08;10.97;;;9.83;;
1765;SDS011;880;52.452;8.656;2022-11-15T08:39:56;10.50;;;7.83;;
1765;SDS011;880;52.452;8.656;2022-11-15T08:42:42;8.70;;;7.90;;
1765;SDS011;880;52.452;8.656;2022-11-15T08:45:27;9.03;;;7.93;;
1765;SDS011;880;52.452;8.656;2022-11-15T08:48:14;9.30;;;8.10;;
1765;SDS011;880;52.452;8.656;2022-11-15T08:50:59;8.70;;;7.80;;
1765;SDS011;880;52.452;8.656;2022-11-15T08:53:45;12.50;;;7.77;;
1765;SDS011;880;52.452;8.656;2022-11-15T08:56:31;7.93;;;7.23;;
1765;SDS011;880;52.452;8.656;2022-11-15T08:59:17;7.57;;;6.87;;
1765;SDS011;880;52.452;8.656;2022-11-15T09:02:02;8.50;;;7.47;;
1765;SDS011;880;52.452;8.656;2022-11-15T09:04:49;7.60;;;6.90;;
1765;SDS011;880;52.452;8.656;2022-11-15T09:07:34;8.00;;;7.20;;
1765;SDS011;880;52.452;8.656;2022-11-15T09:10:21;7.22;;;6.60;;
1765;SDS011;880;52.452;8.656;2022-11-15T09:13:07;6.90;;;6.20;;
1765;SDS011;880;52.452;8.656;2022-11-15T09:15:56;9.33;;;7.27;;
1765;SDS011;880;52.452;8.656;2022-11-15T09:18:44;8.07;;;6.67;;
1765;SDS011;880;52.452;8.656;2022-11-15T09:21:30;7.40;;;6.67;;
1765;SDS011;880;52.452;8.656;2022-11-15T09:24:16;6.50;;;5.70;;
1765;SDS011;880;52.452;8.656;2022-11-15T09:27:02;6.53;;;5.73;;
1765;SDS011;880;52.452;8.656;2022-11-15T09:29:48;6.70;;;6.00;;
1765;SDS011;880;52.452;8.656;2022-11-15T09:32:33;6.83;;;6.27;;
1765;SDS011;880;52.452;8.656;2022-11-15T09:35:23;6.27;;;5.67;;
1765;SDS011;880;52.452;8.656;2022-11-15T09:38:08;5.73;;;5.33;;
1765;SDS011;880;52.452;8.656;2022-11-15T09:41:07;5.40;;;5.00;;
1765;SDS011;880;52.452;8.656;2022-11-15T09:47:41;5.10;;;4.70;;
1765;SDS011;880;52.452;8.656;2022-11-15T09:51:06;5.43;;;4.93;;
1765;SDS011;880;52.452;8.656;2022-11-15T09:53:55;5.03;;;4.53;;
1765;SDS011;880;52.452;8.656;2022-11-15T09:57:29;4.83;;;4.43;;
1765;SDS011;880;52.452;8.656;2022-11-15T10:05:44;4.23;;;3.83;;
1765;SDS011;880;52.452;8.656;2022-11-15T10:11:12;4.10;;;3.80;;
1765;SDS011;880;52.452;8.656;2022-11-15T10:14:26;4.07;;;3.63;;
1765;SDS011;880;52.452;8.656;2022-11-15T10:27:40;4.47;;;3.20;;
1765;SDS011;880;52.452;8.656;2022-11-15T10:30:12;3.30;;;3.00;;
1765;SDS011;880;52.452;8.656;2022-11-15T10:32:44;3.73;;;3.10;;
1765;SDS011;880;52.452;8.656;2022-11-15T10:35:17;3.00;;;2.80;;
1765;SDS011;880;52.452;8.656;2022-11-15T10:37:51;3.13;;;2.53;;
1765;SDS011;880;52.452;8.656;2022-11-15T10:40:31;2.30;;;2.20;;
1765;SDS011;880;52.452;8.656;2022-11-15T10:45:45;3.00;;;2.80;;
1765;SDS011;880;52.452;8.656;2022-11-15T10:50:43;2.50;;;2.30;;
1765;SDS011;880;52.452;8.656;2022-11-15T10:55:56;2.53;;;2.40;;
1765;SDS011;880;52.452;8.656;2022-11-15T10:58:37;4.23;;;2.30;;
1765;SDS011;880;52.452;8.656;2022-11-15T11:01:09;3.73;;;2.10;;
1765;SDS011;880;52.452;8.656;2022-11-15T11:03:57;2.57;;;2.40;;
1765;SDS011;880;52.452;8.656;2022-11-15T11:06:46;2.10;;;2.00;;
1765;SDS011;880;52.452;8.656;2022-11-15T11:12:05;2.80;;;1.97;;
1765;SDS011;880;52.452;8.656;2022-11-15T11:14:37;2.00;;;1.90;;
1765;SDS011;880;52.452;8.656;2022-11-15T11:17:09;2.60;;;2.30;;
1765;SDS011;880;52.452;8.656;2022-11-15T11:20:33;1.97;;;1.87;;
1765;SDS011;880;52.452;8.656;2022-11-15T11:23:28;2.30;;;2.10;;
1765;SDS011;880;52.452;8.656;2022-11-15T11:29:31;2.33;;;1.63;;
1765;SDS011;880;52.452;8.656;2022-11-15T11:35:29;1.70;;;1.60;;
1765;SDS011;880;52.452;8.656;2022-11-15T11:41:24;2.03;;;1.93;;
1765;SDS011;880;52.452;8.656;2022-11-15T11:47:12;1.60;;;1.50;;
1765;SDS011;880;52.452;8.656;2022-11-15T11:49:50;1.40;;;1.30;;
1765;SDS011;880;52.452;8.656;2022-11-15T11:52:30;3.50;;;2.00;;
1765;SDS011;880;52.452;8.656;2022-11-15T11:55:45;2.93;;;2.00;;
1765;SDS011;880;52.452;8.656;2022-11-15T11:58:16;1.90;;;1.80;;
1765;SDS011;880;52.452;8.656;2022-11-15T12:04:04;1.50;;;1.40;;
1765;SDS011;880;52.452;8.656;2022-11-15T12:06:52;1.67;;;1.03;;
1765;SDS011;880;52.452;8.656;2022-11-15T12:17:54;1.40;;;1.30;;
1765;SDS011;880;52.452;8.656;2022-11-15T12:20:33;1.57;;;1.47;;
1765;SDS011;880;52.452;8.656;2022-11-15T12:23:05;1.57;;;1.47;;
1765;SDS011;880;52.452;8.656;2022-11-15T12:25:45;2.40;;;1.73;;
1765;SDS011;880;52.452;8.656;2022-11-15T12:28:42;2.60;;;1.60;;
1765;SDS011;880;52.452;8.656;2022-11-15T12:34:46;2.30;;;1.47;;
1765;SDS011;880;52.452;8.656;2022-11-15T12:36:49;1.83;;;1.60;;
1765;SDS011;880;52.452;8.656;2022-11-15T12:39:18;1.37;;;1.37;;
1765;SDS011;880;52.452;8.656;2022-11-15T12:47:21;2.00;;;1.90;;
1765;SDS011;880;52.452;8.656;2022-11-15T12:49:50;2.47;;;1.80;;
1765;SDS011;880;52.452;8.656;2022-11-15T12:52:18;1.80;;;1.70;;
1765;SDS011;880;52.452;8.656;2022-11-15T12:54:55;1.70;;;1.60;;
1765;SDS011;880;52.452;8.656;2022-11-15T12:57:32;1.70;;;1.60;;
1765;SDS011;880;52.452;8.656;2022-11-15T13:00:36;2.83;;;1.60;;
1765;SDS011;880;52.452;8.656;2022-11-15T13:03:12;4.53;;;2.30;;
1765;SDS011;880;52.452;8.656;2022-11-15T13:05:55;3.40;;;1.70;;
1765;SDS011;880;52.452;8.656;2022-11-15T13:08:59;1.63;;;1.53;;
1765;SDS011;880;52.452;8.656;2022-11-15T13:25:27;1.80;;;1.70;;
1765;SDS011;880;52.452;8.656;2022-11-15T13:28:09;4.30;;;2.73;;
1765;SDS011;880;52.452;8.656;2022-11-15T13:30:50;4.47;;;2.07;;
1765;SDS011;880;52.452;8.656;2022-11-15T13:33:24;1.97;;;1.87;;
1765;SDS011;880;52.452;8.656;2022-11-15T13:36:03;2.53;;;1.90;;
1765;SDS011;880;52.452;8.656;2022-11-15T13:38:53;2.20;;;2.00;;
1765;SDS011;880;52.452;8.656;2022-11-15T13:41:24;2.40;;;2.10;;
1765;SDS011;880;52.452;8.656;2022-11-15T13:43:57;2.10;;;2.00;;
1765;SDS011;880;52.452;8.656;2022-11-15T13:46:26;1.80;;;1.70;;
1765;SDS011;880;52.452;8.656;2022-11-15T13:49:03;5.73;;;1.97;;
1765;SDS011;880;52.452;8.656;2022-11-15T13:51:45;2.10;;;2.00;;
1765;SDS011;880;52.452;8.656;2022-11-15T13:57:03;2.20;;;2.00;;
1765;SDS011;880;52.452;8.656;2022-11-15T13:59:49;2.07;;;1.97;;
1765;SDS011;880;52.452;8.656;2022-11-15T14:02:27;2.40;;;2.20;;
1765;SDS011;880;52.452;8.656;2022-11-15T14:05:03;2.30;;;1.93;;
1765;SDS011;880;52.452;8.656;2022-11-15T14:07:57;1.87;;;1.77;;
1765;SDS011;880;52.452;8.656;2022-11-15T14:10:30;2.00;;;1.77;;
1765;SDS011;880;52.452;8.656;2022-11-15T14:13:02;1.90;;;1.80;;
1765;SDS011;880;52.452;8.656;2022-11-15T14:15:37;1.80;;;1.70;;
1765;SDS011;880;52.452;8.656;2022-11-15T14:18:05;2.67;;;2.47;;
1765;SDS011;880;52.452;8.656;2022-11-15T14:20:36;2.60;;;2.40;;
1765;SDS011;880;52.452;8.656;2022-11-15T14:23:17;3.00;;;2.80;;
1765;SDS011;880;52.452;8.656;2022-11-15T14:25:55;2.73;;;2.53;;
1765;SDS011;880;52.452;8.656;2022-11-15T14:30:52;17.93;;;4.00;;
1765;SDS011;880;52.452;8.656;2022-11-15T14:36:18;2.87;;;2.60;;
1765;SDS011;880;52.452;8.656;2022-11-15T14:38:47;4.30;;;3.00;;
1765;SDS011;880;52.452;8.656;2022-11-15T14:41:17;3.23;;;2.93;;
1765;SDS011;880;52.452;8.656;2022-11-15T14:43:48;3.10;;;2.90;;
1765;SDS011;880;52.452;8.656;2022-11-15T14:46:17;2.80;;;2.60;;
1765;SDS011;880;52.452;8.656;2022-11-15T14:48:44;3.50;;;3.20;;
1765;SDS011;880;52.452;8.656;2022-11-15T14:51:12;3.40;;;3.20;;
1765;SDS011;880;52.452;8.656;2022-11-15T14:53:43;3.10;;;2.80;;
1765;SDS011;880;52.452;8.656;2022-11-15T14:56:11;3.40;;;3.10;;
1765;SDS011;880;52.452;8.656;2022-11-15T14:58:38;3.40;;;3.13;;
1765;SDS011;880;52.452;8.656;2022-11-15T15:01:13;3.20;;;2.97;;
1765;SDS011;880;52.452;8.656;2022-11-15T15:03:46;30.43;;;27.50;;
1765;SDS011;880;52.452;8.656;2022-11-15T15:06:13;22.37;;;20.33;;
1765;SDS011;880;52.452;8.656;2022-11-15T15:08:43;24.00;;;16.90;;
1765;SDS011;880;52.452;8.656;2022-11-15T15:11:22;12.40;;;10.80;;
1765;SDS011;880;52.452;8.656;2022-11-15T15:13:52;6.97;;;6.37;;
1765;SDS011;880;52.452;8.656;2022-11-15T15:16:23;4.40;;;4.03;;
1765;SDS011;880;52.452;8.656;2022-11-15T15:18:51;4.90;;;3.70;;
1765;SDS011;880;52.452;8.656;2022-11-15T15:21:25;4.90;;;4.40;;
1765;SDS011;880;52.452;8.656;2022-11-15T15:24:00;5.43;;;5.03;;
1765;SDS011;880;52.452;8.656;2022-11-15T15:26:28;4.90;;;4.50;;
1765;SDS011;880;52.452;8.656;2022-11-15T15:28:55;5.37;;;4.73;;
1765;SDS011;880;52.452;8.656;2022-11-15T15:31:22;5.20;;;3.60;;
1765;SDS011;880;52.452;8.656;2022-11-15T15:33:49;12.00;;;4.60;;
1765;SDS011;880;52.452;8.656;2022-11-15T15:36:19;12.83;;;4.73;;
1765;SDS011;880;52.452;8.656;2022-11-15T15:38:46;16.57;;;4.67;;
1765;SDS011;880;52.452;8.656;2022-11-15T15:41:14;19.27;;;5.37;;
1765;SDS011;880;52.452;8.656;2022-11-15T15:43:42;13.03;;;6.00;;
1765;SDS011;880;52.452;8.656;2022-11-15T15:46:17;13.80;;;4.37;;
1765;SDS011;880;52.452;8.656;2022-11-15T15:48:45;9.10;;;6.00;;
1765;SDS011;880;52.452;8.656;2022-11-15T15:51:13;13.67;;;4.53;;
1765;SDS011;880;52.452;8.656;2022-11-15T15:53:46;19.20;;;5.77;;
1765;SDS011;880;52.452;8.656;2022-11-15T15:56:14;11.33;;;4.40;;
1765;SDS011;880;52.452;8.656;2022-11-15T15:58:41;11.23;;;3.87;;
1765;SDS011;880;52.452;8.656;2022-11-15T16:01:08;12.80;;;4.30;;
1765;SDS011;880;52.452;8.656;2022-11-15T16:03:35;10.57;;;6.43;;
1765;SDS011;880;52.452;8.656;2022-11-15T16:06:02;7.70;;;6.13;;
1765;SDS011;880;52.452;8.656;2022-11-15T16:08:31;7.20;;;5.00;;
1765;SDS011;880;52.452;8.656;2022-11-15T16:11:18;4.83;;;4.43;;
1765;SDS011;880;52.452;8.656;2022-11-15T16:13:45;3.87;;;3.20;;
1765;SDS011;880;52.452;8.656;2022-11-15T16:16:12;5.40;;;3.80;;
1765;SDS011;880;52.452;8.656;2022-11-15T16:18:40;5.10;;;4.60;;
1765;SDS011;880;52.452;8.656;2022-11-15T16:21:07;4.00;;;3.70;;
1765;SDS011;880;52.452;8.656;2022-11-15T16:23:35;4.93;;;3.40;;
1765;SDS011;880;52.452;8.656;2022-11-15T16:26:02;3.80;;;3.50;;
1765;SDS011;880;52.452;8.656;2022-11-15T16:28:46;6.40;;;4.10;;
1765;SDS011;880;52.452;8.656;2022-11-15T16:31:13;6.73;;;6.10;;
1765;SDS011;880;52.452;8.656;2022-11-15T16:33:43;4.23;;;3.90;;
1765;SDS011;880;52.452;8.656;2022-11-15T16:36:21;5.00;;;3.90;;
1765;SDS011;880;52.452;8.656;2022-11-15T16:38:56;4.13;;;3.73;;
1765;SDS011;880;52.452;8.656;2022-11-15T16:41:24;4.93;;;4.13;;
1765;SDS011;880;52.452;8.656;2022-11-15T16:43:51;9.30;;;4.50;;
1765;SDS011;880;52.452;8.656;2022-11-15T16:46:19;7.73;;;4.97;;
1765;SDS011;880;52.452;8.656;2022-11-15T16:48:51;17.17;;;5.43;;
1765;SDS011;880;52.452;8.656;2022-11-15T16:51:19;12.60;;;4.70;;
1765;SDS011;880;52.452;8.656;2022-11-15T16:53:46;20.60;;;5.40;;
1765;SDS011;880;52.452;8.656;2022-11-15T16:56:19;18.07;;;5.60;;
1765;SDS011;880;52.452;8.656;2022-11-15T16:58:56;23.80;;;7.00;;
1765;SDS011;880;52.452;8.656;2022-11-15T17:01:25;22.37;;;5.60;;
1765;SDS011;880;52.452;8.656;2022-11-15T17:03:55;8.70;;;4.57;;
1765;SDS011;880;52.452;8.656;2022-11-15T17:06:24;16.30;;;4.30;;
1765;SDS011;880;52.452;8.656;2022-11-15T17:08:52;4.23;;;3.90;;
1765;SDS011;880;52.452;8.656;2022-11-15T17:11:20;3.90;;;3.60;;
1765;SDS011;880;52.452;8.656;2022-11-15T17:13:48;9.27;;;4.20;;
1765;SDS011;880;52.452;8.656;2022-11-15T17:16:16;6.27;;;4.20;;
1765;SDS011;880;52.452;8.656;2022-11-15T17:18:44;9.70;;;4.30;;
1765;SDS011;880;52.452;8.656;2022-11-15T17:21:17;5.40;;;4.23;;
1765;SDS011;880;52.452;8.656;2022-11-15T17:23:47;4.93;;;3.90;;
1765;SDS011;880;52.452;8.656;2022-11-15T17:26:14;4.37;;;4.03;;
1765;SDS011;880;52.452;8.656;2022-11-15T17:29:02;5.20;;;4.30;;
1765;SDS011;880;52.452;8.656;2022-11-15T17:31:36;6.43;;;5.03;;
1765;SDS011;880;52.452;8.656;2022-11-15T17:34:04;5.30;;;3.90;;
1765;SDS011;880;52.452;8.656;2022-11-15T17:36:32;6.13;;;5.60;;
1765;SDS011;880;52.452;8.656;2022-11-15T17:39:00;7.97;;;7.37;;
1765;SDS011;880;52.452;8.656;2022-11-15T17:41:27;6.10;;;5.50;;
1765;SDS011;880;52.452;8.656;2022-11-15T17:43:56;6.63;;;4.33;;
1765;SDS011;880;52.452;8.656;2022-11-15T17:46:25;4.83;;;4.43;;
1765;SDS011;880;52.452;8.656;2022-11-15T17:48:54;4.40;;;4.00;;
1765;SDS011;880;52.452;8.656;2022-11-15T17:51:22;4.17;;;3.77;;
1765;SDS011;880;52.452;8.656;2022-11-15T17:53:49;4.10;;;3.80;;
1765;SDS011;880;52.452;8.656;2022-11-15T17:56:19;4.60;;;4.17;;
1765;SDS011;880;52.452;8.656;2022-11-15T17:58:48;4.17;;;3.80;;
1765;SDS011;880;52.452;8.656;2022-11-15T18:01:19;6.27;;;5.67;;
1765;SDS011;880;52.452;8.656;2022-11-15T18:03:50;9.37;;;7.83;;
1765;SDS011;880;52.452;8.656;2022-11-15T18:06:19;6.93;;;6.33;;
1765;SDS011;880;52.452;8.656;2022-11-15T18:08:48;10.60;;;9.50;;
1765;SDS011;880;52.452;8.656;2022-11-15T18:11:17;14.93;;;13.10;;
1765;SDS011;880;52.452;8.656;2022-11-15T18:13:48;7.00;;;6.30;;
1765;SDS011;880;52.452;8.656;2022-11-15T18:16:19;4.90;;;4.50;;
1765;SDS011;880;52.452;8.656;2022-11-15T18:18:50;5.07;;;4.67;;
1765;SDS011;880;52.452;8.656;2022-11-15T18:21:19;5.07;;;4.57;;
1765;SDS011;880;52.452;8.656;2022-11-15T18:23:54;4.77;;;4.37;;
1765;SDS011;880;52.452;8.656;2022-11-15T18:26:27;5.60;;;5.10;;
1765;SDS011;880;52.452;8.656;2022-11-15T18:29:00;4.93;;;4.50;;
1765;SDS011;880;52.452;8.656;2022-11-15T18:31:30;5.40;;;4.90;;
1765;SDS011;880;52.452;8.656;2022-11-15T18:33:57;4.97;;;4.57;;
1765;SDS011;880;52.452;8.656;2022-11-15T18:36:26;5.30;;;4.90;;
1765;SDS011;880;52.452;8.656;2022-11-15T18:38:56;5.70;;;5.20;;
1765;SDS011;880;52.452;8.656;2022-11-15T18:41:27;5.20;;;4.70;;
1765;SDS011;880;52.452;8.656;2022-11-15T18:43:56;5.77;;;5.27;;
1765;SDS011;880;52.452;8.656;2022-11-15T18:46:27;6.40;;;5.80;;
1765;SDS011;880;52.452;8.656;2022-11-15T18:48:57;5.27;;;4.87;;
1765;SDS011;880;52.452;8.656;2022-11-15T18:51:27;5.53;;;5.03;;
1765;SDS011;880;52.452;8.656;2022-11-15T18:53:58;5.73;;;5.20;;
1765;SDS011;880;52.452;8.656;2022-11-15T18:56:27;5.67;;;5.17;;
1765;SDS011;880;52.452;8.656;2022-11-15T18:58:57;5.77;;;5.27;;